createdAt,value
2022-08-28T00:02:24.639Z,98600.91
2022-08-28T00:05:11.023Z,98600.91
2022-08-28T00:07:57.064Z,98598.38
2022-08-28T00:10:43.645Z,98607.78
2022-08-28T00:13:28.597Z,98607.81
2022-08-28T00:16:13.949Z,98607.59
2022-08-28T00:19:01.413Z,98605.53
2022-08-28T00:21:46.572Z,98601.16
2022-08-28T00:24:31.531Z,98593.91
2022-08-28T00:27:35.822Z,98592.41
2022-08-28T00:30:34.352Z,98584.38
2022-08-28T00:33:33.593Z,98592.72
2022-08-28T00:36:19.052Z,98588.84
2022-08-28T00:39:05.610Z,98585.47
2022-08-28T00:41:52.140Z,98583.94
2022-08-28T00:44:44.354Z,98583.47
2022-08-28T00:47:29.846Z,98582.00
2022-08-28T00:50:17.966Z,98581.25
2022-08-28T00:53:03.659Z,98574.19
2022-08-28T00:55:49.726Z,98580.41
2022-08-28T00:58:34.563Z,98576.25
2022-08-28T01:01:19.492Z,98573.44
2022-08-28T01:04:05.728Z,98577.13
2022-08-28T01:06:54.163Z,98570.94
2022-08-28T01:09:44.353Z,98573.34
2022-08-28T01:12:31.938Z,98574.38
2022-08-28T01:15:20.020Z,98569.47
2022-08-28T01:18:08.723Z,98567.13
2022-08-28T01:21:04.954Z,98568.69
2022-08-28T01:23:53.141Z,98568.69
2022-08-28T01:26:37.924Z,98565.34
2022-08-28T01:29:23.217Z,98574.72
2022-08-28T01:32:09.208Z,98564.38
2022-08-28T01:34:54.613Z,98569.59
2022-08-28T01:37:40.241Z,98569.38
2022-08-28T01:40:32.156Z,98568.63
2022-08-28T01:43:20.824Z,98568.91
2022-08-28T01:46:06.148Z,98564.00
2022-08-28T01:48:51.187Z,98565.84
2022-08-28T01:51:38.261Z,98566.88
2022-08-28T01:54:24.779Z,98569.47
2022-08-28T01:57:09.606Z,98574.16
2022-08-28T01:59:54.822Z,98578.88
2022-08-28T02:02:40.071Z,98568.78
2022-08-28T02:05:27.805Z,98575.28
2022-08-28T02:08:13.833Z,98577.09
2022-08-28T02:10:59.004Z,98573.94
2022-08-28T02:13:43.923Z,98576.53
2022-08-28T02:16:29.502Z,98571.13
2022-08-28T02:19:14.743Z,98576.84
2022-08-28T02:21:59.935Z,98572.69
2022-08-28T02:24:45.668Z,98579.72
2022-08-28T02:27:30.468Z,98580.53
2022-08-28T02:30:16.907Z,98582.34
2022-08-28T02:33:02.387Z,98580.28
2022-08-28T02:35:48.777Z,98582.59
2022-08-28T02:38:33.703Z,98581.84
2022-08-28T02:41:18.623Z,98577.16
2022-08-28T02:44:04.106Z,98576.69
2022-08-28T02:46:48.947Z,98581.88
2022-08-28T02:49:35.571Z,98582.66
2022-08-28T02:52:23.019Z,98580.06
2022-08-28T02:55:10.884Z,98574.63
2022-08-28T02:57:55.922Z,98573.84
2022-08-28T03:00:40.849Z,98581.41
2022-08-28T03:03:27.205Z,98571.28
2022-08-28T03:06:13.113Z,98585.56
2022-08-28T03:08:58.032Z,98582.47
2022-08-28T03:11:42.632Z,98582.97
2022-08-28T03:14:27.655Z,98585.59
2022-08-28T03:17:12.726Z,98576.53
2022-08-28T03:19:58.014Z,98578.59
2022-08-28T03:23:01.317Z,98581.69
2022-08-28T03:25:46.549Z,98578.59
2022-08-28T03:28:40.954Z,98585.09
2022-08-28T03:31:27.572Z,98586.91
2022-08-28T03:34:12.856Z,98597.25
2022-08-28T03:36:57.753Z,98594.16
2022-08-28T03:39:43.175Z,98606.81
2022-08-28T03:42:28.058Z,98610.97
2022-08-28T03:45:13.511Z,98608.63
2022-08-28T03:47:58.627Z,98610.47
2022-08-28T03:50:44.084Z,98612.25
2022-08-28T03:53:29.470Z,98618.69
2022-08-28T03:56:21.422Z,98616.38
2022-08-28T03:59:06.156Z,98615.59
2022-08-28T04:01:51.561Z,98612.97
2022-08-28T04:04:36.570Z,98609.84
2022-08-28T04:07:21.999Z,98604.63
2022-08-28T04:10:07.657Z,98611.09
2022-08-28T04:12:53.449Z,98605.66
2022-08-28T04:15:39.145Z,98612.38
2022-08-28T04:18:24.108Z,98601.72
2022-08-28T04:21:17.235Z,98609.16
2022-08-28T04:24:03.053Z,98604.19
2022-08-28T04:26:50.044Z,98602.31
2022-08-28T04:29:35.083Z,98602.25
2022-08-28T04:32:19.922Z,98608.13
2022-08-28T04:35:07.464Z,98599.66
2022-08-28T04:37:52.191Z,98600.22
2022-08-28T04:40:40.837Z,98603.34
2022-08-28T04:43:25.758Z,98605.00
2022-08-28T04:46:13.764Z,98607.84
2022-08-28T04:48:59.548Z,98606.78
2022-08-28T04:51:44.250Z,98603.66
2022-08-28T04:54:34.851Z,98603.19
2022-08-28T04:57:19.915Z,98602.16
2022-08-28T05:00:06.536Z,98597.06
2022-08-28T05:02:51.193Z,98597.59
2022-08-28T05:05:51.400Z,98596.91
2022-08-28T05:08:36.240Z,98597.69
2022-08-28T05:11:33.500Z,98600.78
2022-08-28T05:14:21.212Z,98589.56
2022-08-28T05:17:05.838Z,98586.00
2022-08-28T05:19:51.685Z,98588.69
2022-08-28T05:22:36.728Z,98583.09
2022-08-28T05:25:21.769Z,98588.72
2022-08-28T05:28:11.442Z,98591.38
2022-08-28T05:31:08.806Z,98593.28
2022-08-28T05:33:53.533Z,98587.75
2022-08-28T05:36:39.077Z,98591.59
2022-08-28T05:39:24.094Z,98592.06
2022-08-28T05:42:09.005Z,98585.56
2022-08-28T05:44:54.690Z,98585.59
2022-08-28T05:47:39.692Z,98582.91
2022-08-28T05:50:24.762Z,98583.19
2022-08-28T05:53:09.945Z,98584.22
2022-08-28T05:55:54.565Z,98579.19
2022-08-28T05:58:39.987Z,98582.47
2022-08-28T06:01:28.341Z,98579.66
2022-08-28T06:04:17.398Z,98583.03
2022-08-28T06:07:04.421Z,98587.81
2022-08-28T06:09:49.456Z,98586.41
2022-08-28T06:12:34.422Z,98592.78
2022-08-28T06:15:19.377Z,98589.88
2022-08-28T06:18:04.375Z,98593.78
2022-08-28T06:20:49.660Z,98589.00
2022-08-28T06:23:34.603Z,98595.94
2022-08-28T06:26:19.504Z,98604.38
2022-08-28T06:29:10.415Z,98599.13
2022-08-28T06:31:59.221Z,98597.56
2022-08-28T06:34:44.103Z,98600.44
2022-08-28T06:37:29.275Z,98598.56
2022-08-28T06:40:14.332Z,98596.25
2022-08-28T06:42:59.768Z,98599.16
2022-08-28T06:45:47.471Z,98605.28
2022-08-28T06:48:32.637Z,98599.75
2022-08-28T06:51:17.882Z,98603.06
2022-08-28T06:54:02.790Z,98604.06
2022-08-28T06:56:47.644Z,98610.31
2022-08-28T06:59:32.978Z,98619.22
2022-08-28T07:02:18.194Z,98616.47
2022-08-28T07:05:03.867Z,98617.09
2022-08-28T07:07:48.645Z,98617.50
2022-08-28T07:10:33.427Z,98607.03
2022-08-28T07:13:18.265Z,98610.13
2022-08-28T07:16:03.559Z,98608.00
2022-08-28T07:18:48.363Z,98616.88
2022-08-28T07:21:38.131Z,98614.47
2022-08-28T07:24:24.494Z,98612.88
2022-08-28T07:27:09.386Z,98612.75
2022-08-28T07:29:54.184Z,98616.06
2022-08-28T07:32:39.303Z,98609.66
2022-08-28T07:35:24.204Z,98611.31
2022-08-28T07:38:09.344Z,98605.25
2022-08-28T07:40:54.910Z,98615.28
2022-08-28T07:43:58.068Z,98611.88
2022-08-28T07:46:44.516Z,98613.84
2022-08-28T07:49:30.758Z,98618.16
2022-08-28T07:52:15.525Z,98612.53
2022-08-28T07:55:00.845Z,98621.00
2022-08-28T07:57:47.413Z,98618.88
2022-08-28T08:00:32.368Z,98617.47
2022-08-28T08:03:17.383Z,98610.34
2022-08-28T08:06:04.382Z,98618.09
2022-08-28T08:08:49.153Z,98615.56
2022-08-28T08:11:34.802Z,98618.94
2022-08-28T08:14:20.133Z,98615.91
2022-08-28T08:17:07.427Z,98624.69
2022-08-28T08:19:54.542Z,98622.59
2022-08-28T08:22:39.642Z,98623.44
2022-08-28T08:25:24.519Z,98623.19
2022-08-28T08:28:09.596Z,98623.66
2022-08-28T08:31:15.012Z,98618.28
2022-08-28T08:34:03.003Z,98620.22
2022-08-28T08:36:48.327Z,98612.56
2022-08-28T08:39:34.689Z,98611.06
2022-08-28T08:42:34.022Z,98609.56
2022-08-28T08:45:23.278Z,98607.66
2022-08-28T08:48:20.629Z,98614.88
2022-08-28T08:51:19.967Z,98616.41
2022-08-28T08:54:09.277Z,98617.78
2022-08-28T08:56:55.565Z,98617.38
2022-08-28T08:59:41.342Z,98611.50
2022-08-28T09:02:33.053Z,98605.13
2022-08-28T09:05:33.189Z,98614.56
2022-08-28T09:08:26.092Z,98617.53
2022-08-28T09:11:17.561Z,98619.22
2022-08-28T09:14:13.551Z,98624.75
2022-08-28T09:16:59.407Z,98623.56
2022-08-28T09:19:44.534Z,98624.19
2022-08-28T09:22:29.579Z,98623.25
2022-08-28T09:25:51.681Z,98635.03
2022-08-28T09:28:40.165Z,98629.06
2022-08-28T09:31:38.458Z,98627.50
2022-08-28T09:34:23.504Z,98634.81
2022-08-28T09:37:25.787Z,98629.06
2022-08-28T09:40:21.384Z,98634.75
2022-08-28T09:43:27.987Z,98632.84
2022-08-28T09:46:21.778Z,98633.25
2022-08-28T09:49:13.008Z,98629.69
2022-08-28T09:52:01.198Z,98625.72
2022-08-28T09:54:48.021Z,98621.06
2022-08-28T09:57:33.005Z,98624.63
2022-08-28T10:00:18.001Z,98619.97
2022-08-28T10:03:14.342Z,98620.22
2022-08-28T10:06:07.896Z,98617.13
2022-08-28T10:09:00.888Z,98620.38
2022-08-28T10:12:04.210Z,98616.41
2022-08-28T10:15:32.357Z,98615.69
2022-08-28T10:18:35.978Z,98615.06
2022-08-28T10:22:09.205Z,98609.88
2022-08-28T10:25:17.496Z,98613.28
2022-08-28T10:28:09.136Z,98616.88
2022-08-28T10:31:03.685Z,98614.66
2022-08-28T10:34:19.020Z,98611.47
2022-08-28T10:37:12.278Z,98599.13
2022-08-28T10:40:17.736Z,98601.84
2022-08-28T10:43:20.759Z,98611.88
2022-08-28T10:46:12.277Z,98607.56
2022-08-28T10:49:06.559Z,98604.06
2022-08-28T10:51:59.080Z,98605.91
2022-08-28T10:54:57.054Z,98605.91
2022-08-28T10:58:03.029Z,98593.88
2022-08-28T11:00:48.920Z,98595.59
2022-08-28T11:03:47.730Z,98602.56
2022-08-28T11:06:40.922Z,98598.56
2022-08-28T11:09:31.454Z,98598.47
2022-08-28T11:12:16.404Z,98601.47
2022-08-28T11:15:31.509Z,98603.69
2022-08-28T11:18:40.766Z,98603.66
2022-08-28T11:21:36.354Z,98604.38
2022-08-28T11:24:41.433Z,98611.19
2022-08-28T11:27:35.271Z,98608.09
2022-08-28T11:30:35.222Z,98604.09
2022-08-28T11:33:42.245Z,98605.09
2022-08-28T11:36:28.708Z,98592.06
2022-08-28T11:39:13.152Z,98603.00
2022-08-28T11:42:31.520Z,98593.22
2022-08-28T11:45:21.749Z,98594.41
2022-08-28T11:48:06.943Z,98593.31
2022-08-28T11:50:59.717Z,98588.84
2022-08-28T11:54:21.917Z,98591.03
2022-08-28T11:57:26.981Z,98595.97
2022-08-28T12:00:21.100Z,98590.34
2022-08-28T12:03:06.116Z,98583.84
2022-08-28T12:05:54.921Z,98589.34
2022-08-28T12:08:58.541Z,98579.59
2022-08-28T12:11:44.242Z,98578.09
2022-08-28T12:14:29.224Z,98584.94
2022-08-28T12:17:31.078Z,98590.13
2022-08-28T12:20:30.512Z,98581.66
2022-08-28T12:23:36.867Z,98576.03
2022-08-28T12:26:29.532Z,98577.78
2022-08-28T12:29:17.132Z,98575.03
2022-08-28T12:32:24.419Z,98568.53
2022-08-28T12:35:28.004Z,98574.47
2022-08-28T12:38:20.366Z,98566.69
2022-08-28T12:41:16.324Z,98577.53
2022-08-28T12:44:01.465Z,98574.88
2022-08-28T12:46:48.399Z,98566.34
2022-08-28T12:49:36.492Z,98565.72
2022-08-28T12:52:23.881Z,98572.25
2022-08-28T12:55:08.809Z,98575.72
2022-08-28T12:57:54.723Z,98568.63
2022-08-28T13:00:54.194Z,98567.69
2022-08-28T13:03:49.354Z,98575.50
2022-08-28T13:06:38.998Z,98562.31
2022-08-28T13:09:27.662Z,98572.31
2022-08-28T13:12:23.462Z,98560.44
2022-08-28T13:16:04.467Z,98569.28
2022-08-28T13:18:52.233Z,98575.81
2022-08-28T13:21:46.871Z,98571.44
2022-08-28T13:24:34.603Z,98567.50
2022-08-28T13:27:22.831Z,98564.00
2022-08-28T13:30:23.502Z,98566.69
2022-08-28T13:33:25.506Z,98570.34
2022-08-28T13:36:22.005Z,98567.44
2022-08-28T13:39:07.582Z,98562.50
2022-08-28T13:41:55.878Z,98563.00
2022-08-28T13:44:52.627Z,98567.53
2022-08-28T13:47:37.648Z,98565.00
2022-08-28T13:50:23.478Z,98561.31
2022-08-28T13:53:08.589Z,98565.63
2022-08-28T13:55:53.613Z,98576.34
2022-08-28T13:58:38.696Z,98568.44
2022-08-28T14:01:43.958Z,98564.41
2022-08-28T14:04:29.165Z,98562.38
2022-08-28T14:07:15.358Z,98561.72
2022-08-28T14:10:00.177Z,98565.00
2022-08-28T14:12:47.108Z,98561.16
2022-08-28T14:15:32.361Z,98561.22
2022-08-28T14:18:17.836Z,98561.47
2022-08-28T14:21:05.116Z,98560.75
2022-08-28T14:23:49.912Z,98570.97
2022-08-28T14:26:35.365Z,98560.19
2022-08-28T14:29:21.174Z,98558.41
2022-08-28T14:32:06.321Z,98559.66
2022-08-28T14:34:51.585Z,98558.44
2022-08-28T14:37:36.578Z,98561.03
2022-08-28T14:40:21.461Z,98551.63
2022-08-28T14:43:09.747Z,98558.06
2022-08-28T14:45:54.488Z,98551.81
2022-08-28T14:48:39.495Z,98556.22
2022-08-28T14:51:24.907Z,98560.09
2022-08-28T14:54:12.914Z,98551.94
2022-08-28T14:56:57.558Z,98546.50
2022-08-28T14:59:43.001Z,98547.13
2022-08-28T15:02:28.279Z,98548.38
2022-08-28T15:05:13.031Z,98550.91
2022-08-28T15:07:57.901Z,98554.19
2022-08-28T15:10:44.167Z,98551.41
2022-08-28T15:13:31.385Z,98549.66
2022-08-28T15:16:29.320Z,98553.09
2022-08-28T15:19:17.311Z,98551.28
2022-08-28T15:22:03.643Z,98551.94
2022-08-28T15:24:51.459Z,98547.28
2022-08-28T15:27:40.748Z,98546.91
2022-08-28T15:30:25.595Z,98542.06
2022-08-28T15:33:10.873Z,98550.09
2022-08-28T15:35:56.375Z,98547.31
2022-08-28T15:39:00.146Z,98550.00
2022-08-28T15:41:47.068Z,98546.78
2022-08-28T15:44:32.661Z,98546.09
2022-08-28T15:47:17.674Z,98554.13
2022-08-28T15:50:04.582Z,98549.56
2022-08-28T15:52:49.624Z,98553.69
2022-08-28T15:55:38.120Z,98555.31
2022-08-28T15:58:23.177Z,98555.59
2022-08-28T16:01:08.415Z,98555.34
2022-08-28T16:03:53.292Z,98562.66
2022-08-28T16:06:38.127Z,98551.72
2022-08-28T16:09:23.489Z,98557.63
2022-08-28T16:12:08.463Z,98561.31
2022-08-28T16:14:53.711Z,98557.69
2022-08-28T16:17:38.403Z,98556.63
2022-08-28T16:20:24.900Z,98560.81
2022-08-28T16:23:11.984Z,98557.00
2022-08-28T16:25:56.917Z,98550.09
2022-08-28T16:28:42.981Z,98560.66
2022-08-28T16:31:28.059Z,98560.84
2022-08-28T16:34:13.920Z,98564.41
2022-08-28T16:36:59.516Z,98561.50
2022-08-28T16:39:45.028Z,98566.44
2022-08-28T16:42:32.872Z,98566.69
2022-08-28T16:45:18.905Z,98574.38
2022-08-28T16:48:04.871Z,98575.09
2022-08-28T16:50:49.545Z,98574.59
2022-08-28T16:53:34.638Z,98579.63
2022-08-28T16:56:19.710Z,98580.84
2022-08-28T16:59:04.683Z,98583.28
2022-08-28T17:01:55.690Z,98590.66
2022-08-28T17:04:40.900Z,98589.56
2022-08-28T17:07:26.476Z,98597.97
2022-08-28T17:10:15.120Z,98603.44
2022-08-28T17:13:01.016Z,98596.03
2022-08-28T17:15:46.250Z,98599.25
2022-08-28T17:18:31.622Z,98601.88
2022-08-28T17:21:35.048Z,98597.56
2022-08-28T17:24:20.073Z,98606.78
2022-08-28T17:27:06.252Z,98606.66
2022-08-28T17:29:51.132Z,98607.72
2022-08-28T17:32:36.657Z,98606.13
2022-08-28T17:35:22.413Z,98608.41
2022-08-28T17:38:08.539Z,98609.47
2022-08-28T17:40:56.174Z,98607.09
2022-08-28T17:43:40.949Z,98614.94
2022-08-28T17:46:26.029Z,98610.09
2022-08-28T17:49:10.942Z,98619.41
2022-08-28T17:51:56.299Z,98626.56
2022-08-28T17:54:40.906Z,98622.13
2022-08-28T17:57:29.870Z,98623.28
2022-08-28T18:00:16.413Z,98622.88
2022-08-28T18:03:02.100Z,98626.50
2022-08-28T18:05:46.865Z,98626.22
2022-08-28T18:08:31.889Z,98631.03
2022-08-28T18:11:18.936Z,98626.25
2022-08-28T18:14:04.990Z,98632.91
2022-08-28T18:16:50.677Z,98632.47
2022-08-28T18:19:36.848Z,98636.66
2022-08-28T18:22:25.359Z,98632.81
2022-08-28T18:25:31.397Z,98637.00
2022-08-28T18:28:22.221Z,98637.78
2022-08-28T18:31:07.506Z,98633.78
2022-08-28T18:33:53.744Z,98632.72
2022-08-28T18:36:40.883Z,98634.13
2022-08-28T18:39:29.953Z,98635.97
2022-08-28T18:42:15.698Z,98631.16
2022-08-28T18:45:26.751Z,98632.88
2022-08-28T18:48:11.948Z,98632.72
2022-08-28T18:50:56.792Z,98633.78
2022-08-28T18:53:43.261Z,98630.38
2022-08-28T18:56:31.691Z,98634.41
2022-08-28T18:59:17.685Z,98636.13
2022-08-28T19:02:02.994Z,98631.66
2022-08-28T19:04:48.091Z,98631.16
2022-08-28T19:07:33.422Z,98630.25
2022-08-28T19:10:32.713Z,98639.34
2022-08-28T19:13:19.833Z,98631.66
2022-08-28T19:16:05.417Z,98633.63
2022-08-28T19:18:52.991Z,98630.38
2022-08-28T19:21:38.389Z,98631.63
2022-08-28T19:24:23.714Z,98630.09
2022-08-28T19:27:08.946Z,98625.03
2022-08-28T19:29:54.115Z,98632.91
2022-08-28T19:32:43.663Z,98635.81
2022-08-28T19:35:28.530Z,98631.06
2022-08-28T19:38:13.426Z,98632.59
2022-08-28T19:40:58.218Z,98633.06
2022-08-28T19:43:44.663Z,98630.91
2022-08-28T19:46:29.980Z,98633.97
2022-08-28T19:49:14.792Z,98627.50
2022-08-28T19:51:59.771Z,98625.19
2022-08-28T19:54:44.618Z,98628.44
2022-08-28T19:57:29.638Z,98626.72
2022-08-28T20:00:17.798Z,98631.66
2022-08-28T20:03:02.591Z,98639.19
2022-08-28T20:05:50.625Z,98632.72
2022-08-28T20:08:35.988Z,98637.63
2022-08-28T20:11:25.418Z,98636.16
2022-08-28T20:14:16.638Z,98639.38
2022-08-28T20:17:01.366Z,98641.66
2022-08-28T20:19:47.109Z,98634.72
2022-08-28T20:22:31.826Z,98634.72
2022-08-28T20:25:17.632Z,98640.41
2022-08-28T20:28:02.659Z,98638.25
2022-08-28T20:30:47.385Z,98637.13
2022-08-28T20:33:32.743Z,98646.78
2022-08-28T20:36:21.288Z,98631.72
2022-08-28T20:39:08.953Z,98637.00
2022-08-28T20:41:53.895Z,98645.13
2022-08-28T20:44:39.352Z,98638.84
2022-08-28T20:47:25.353Z,98638.66
2022-08-28T20:50:11.722Z,98640.94
2022-08-28T20:52:56.446Z,98639.97
2022-08-28T20:55:41.606Z,98646.56
2022-08-28T20:58:27.124Z,98640.75
2022-08-28T21:01:12.394Z,98636.91
2022-08-28T21:03:57.311Z,98635.94
2022-08-28T21:06:45.911Z,98633.44
2022-08-28T21:09:35.887Z,98637.56
2022-08-28T21:12:37.857Z,98633.06
2022-08-28T21:15:22.883Z,98640.34
2022-08-28T21:18:09.311Z,98635.94
2022-08-28T21:20:56.200Z,98634.34
2022-08-28T21:23:42.255Z,98638.34
2022-08-28T21:26:27.055Z,98639.97
2022-08-28T21:29:14.035Z,98643.19
2022-08-28T21:31:59.358Z,98625.00
2022-08-28T21:34:44.203Z,98642.03
2022-08-28T21:37:29.634Z,98632.19
2022-08-28T21:40:16.809Z,98633.09
2022-08-28T21:43:01.998Z,98628.44
2022-08-28T21:45:57.721Z,98623.22
2022-08-28T21:48:47.299Z,98631.94
2022-08-28T21:51:32.242Z,98630.22
2022-08-28T21:54:18.938Z,98630.81
2022-08-28T21:57:03.829Z,98625.88
2022-08-28T21:59:48.801Z,98634.78
2022-08-28T22:02:33.841Z,98634.00
2022-08-28T22:05:19.333Z,98633.44
2022-08-28T22:08:04.693Z,98635.66
2022-08-28T22:10:49.550Z,98636.50
2022-08-28T22:13:34.971Z,98633.72
2022-08-28T22:16:20.906Z,98638.19
2022-08-28T22:19:06.037Z,98632.47
2022-08-28T22:22:09.585Z,98637.41
2022-08-28T22:24:54.620Z,98635.38
2022-08-28T22:27:39.682Z,98641.25
2022-08-28T22:30:24.760Z,98638.09
2022-08-28T22:33:10.813Z,98639.53
2022-08-28T22:35:55.918Z,98641.75
2022-08-28T22:38:41.406Z,98643.00
2022-08-28T22:41:32.698Z,98649.28
2022-08-28T22:44:17.425Z,98641.34
2022-08-28T22:47:03.074Z,98638.34
2022-08-28T22:49:49.196Z,98636.06
2022-08-28T22:52:34.586Z,98641.38
2022-08-28T22:55:20.455Z,98645.88
2022-08-28T22:58:05.698Z,98639.41
2022-08-28T23:00:51.872Z,98640.50
2022-08-28T23:03:37.267Z,98639.63
2022-08-28T23:06:22.056Z,98644.53
2022-08-28T23:09:08.201Z,98640.19
2022-08-28T23:11:53.106Z,98644.22
2022-08-28T23:14:38.272Z,98650.84
2022-08-28T23:17:23.114Z,98654.31
2022-08-28T23:20:12.364Z,98655.16
2022-08-28T23:22:58.353Z,98652.63
2022-08-28T23:25:44.050Z,98653.47
2022-08-28T23:28:29.034Z,98647.72
2022-08-28T23:31:14.437Z,98647.16
2022-08-28T23:33:59.201Z,98654.97
2022-08-28T23:36:44.456Z,98652.06
2022-08-28T23:39:29.289Z,98653.97
2022-08-28T23:42:15.665Z,98662.94
2022-08-28T23:45:00.797Z,98659.06
2022-08-28T23:47:46.509Z,98660.88
2022-08-28T23:50:31.472Z,98658.47
2022-08-28T23:53:16.796Z,98665.78
2022-08-28T23:56:02.058Z,98671.38
2022-08-28T23:58:46.796Z,98667.28
